createdAt,value
2022-10-15T00:01:10.440Z,63.76
2022-10-15T00:03:39.006Z,63.84
2022-10-15T00:06:10.600Z,63.77
2022-10-15T00:08:39.605Z,63.72
2022-10-15T00:11:09.830Z,63.73
2022-10-15T00:13:38.448Z,63.77
2022-10-15T00:16:09.370Z,63.72
2022-10-15T00:18:37.899Z,63.72
2022-10-15T00:21:09.554Z,63.83
2022-10-15T00:23:38.942Z,63.88
2022-10-15T00:26:08.745Z,63.92
2022-10-15T00:28:36.966Z,64.18
2022-10-15T00:31:06.858Z,64.24
2022-10-15T00:33:35.870Z,64.19
2022-10-15T00:36:07.278Z,64.18
2022-10-15T00:38:37.322Z,64.10
2022-10-15T00:41:06.285Z,64.27
2022-10-15T00:43:43.390Z,64.05
2022-10-15T00:46:19.183Z,64.14
2022-10-15T00:48:51.132Z,64.38
2022-10-15T00:51:21.850Z,64.44
2022-10-15T00:53:52.001Z,64.47
2022-10-15T00:56:23.309Z,64.34
2022-10-15T00:58:53.439Z,64.26
2022-10-15T01:01:21.991Z,64.20
2022-10-15T01:03:50.400Z,64.19
2022-10-15T01:06:18.512Z,64.16
2022-10-15T01:08:47.536Z,64.21
2022-10-15T01:11:31.779Z,64.03
2022-10-15T01:14:21.102Z,64.02
2022-10-15T01:16:53.838Z,64.18
2022-10-15T01:19:35.114Z,64.18
2022-10-15T01:22:07.665Z,64.43
2022-10-15T01:24:54.733Z,64.24
2022-10-15T01:27:45.481Z,64.34
2022-10-15T01:30:21.173Z,64.34
2022-10-15T01:33:05.724Z,64.25
2022-10-15T01:35:43.196Z,64.69
2022-10-15T01:38:24.138Z,64.50
2022-10-15T01:40:57.517Z,64.43
2022-10-15T01:43:31.411Z,64.29
2022-10-15T01:46:25.431Z,64.30
2022-10-15T01:49:09.231Z,64.47
2022-10-15T01:51:39.865Z,64.40
2022-10-15T01:54:12.109Z,64.37
2022-10-15T01:56:41.692Z,64.39
2022-10-15T01:59:11.567Z,64.47
2022-10-15T02:04:21.945Z,64.04
2022-10-15T02:06:54.592Z,64.37
2022-10-15T02:09:31.747Z,64.31
2022-10-15T02:12:12.271Z,64.34
2022-10-15T02:14:48.974Z,64.44
2022-10-15T02:17:24.570Z,64.47
2022-10-15T02:22:36.287Z,64.52
2022-10-15T02:25:07.727Z,64.48
2022-10-15T02:27:36.970Z,64.50
2022-10-15T02:30:09.985Z,64.59
2022-10-15T02:32:41.993Z,64.50
2022-10-15T02:35:12.238Z,64.63
2022-10-15T02:37:48.869Z,64.40
2022-10-15T02:40:20.998Z,64.56
2022-10-15T02:42:50.784Z,64.53
2022-10-15T02:45:18.901Z,64.58
2022-10-15T02:47:48.609Z,64.69
2022-10-15T02:50:18.437Z,64.66
2022-10-15T02:52:46.543Z,64.67
2022-10-15T02:55:14.612Z,64.68
2022-10-15T02:57:43.061Z,64.71
2022-10-15T03:00:12.278Z,64.85
2022-10-15T03:02:41.767Z,64.76
2022-10-15T03:05:11.889Z,64.63
2022-10-15T03:07:39.993Z,64.76
2022-10-15T03:10:09.324Z,64.56
2022-10-15T03:12:37.406Z,64.71
2022-10-15T03:15:07.786Z,64.68
2022-10-15T03:17:37.012Z,64.72
2022-10-15T03:20:05.858Z,64.62
2022-10-15T03:22:38.946Z,64.55
2022-10-15T03:25:07.543Z,64.69
2022-10-15T03:27:35.669Z,64.56
2022-10-15T03:30:08.974Z,64.58
2022-10-15T03:32:37.000Z,64.56
2022-10-15T03:35:07.797Z,64.59
2022-10-15T03:37:37.998Z,64.69
2022-10-15T03:40:13.450Z,64.73
2022-10-15T03:42:43.701Z,64.63
2022-10-15T03:45:12.917Z,64.69
2022-10-15T03:47:40.981Z,64.67
2022-10-15T03:50:09.908Z,64.85
2022-10-15T03:52:39.614Z,64.60
2022-10-15T03:55:09.554Z,64.52
2022-10-15T03:57:38.031Z,64.66
2022-10-15T04:00:09.666Z,64.56
2022-10-15T04:02:40.456Z,64.45
2022-10-15T04:05:19.134Z,64.51
2022-10-15T04:07:54.315Z,64.41
2022-10-15T04:10:23.589Z,64.43
2022-10-15T04:12:51.878Z,64.44
2022-10-15T04:15:20.413Z,64.64
2022-10-15T04:17:55.734Z,64.63
2022-10-15T04:20:25.333Z,64.64
2022-10-15T04:22:54.774Z,64.46
2022-10-15T04:25:22.950Z,64.53
2022-10-15T04:27:51.117Z,64.57
2022-10-15T04:30:20.089Z,64.46
2022-10-15T04:32:55.078Z,64.39
2022-10-15T04:35:23.910Z,64.43
2022-10-15T04:38:03.620Z,64.33
2022-10-15T04:40:58.773Z,64.42
2022-10-15T04:43:30.369Z,64.28
2022-10-15T04:46:05.691Z,64.24
2022-10-15T04:48:37.681Z,64.46
2022-10-15T04:51:14.415Z,64.27
2022-10-15T04:54:02.813Z,64.31
2022-10-15T04:56:32.098Z,64.21
2022-10-15T04:59:00.759Z,64.18
2022-10-15T05:01:32.700Z,64.29
2022-10-15T05:04:07.358Z,64.24
2022-10-15T05:06:35.399Z,64.34
2022-10-15T05:09:17.762Z,64.43
2022-10-15T05:11:50.663Z,64.30
2022-10-15T05:14:18.910Z,64.24
2022-10-15T05:17:03.242Z,64.11
2022-10-15T05:19:36.323Z,63.92
2022-10-15T05:22:04.454Z,63.95
2022-10-15T05:24:35.450Z,64.11
2022-10-15T05:27:14.252Z,64.08
2022-10-15T05:29:43.518Z,64.13
2022-10-15T05:32:11.762Z,64.05
2022-10-15T05:34:41.425Z,64.02
2022-10-15T05:37:15.701Z,64.01
2022-10-15T05:39:45.473Z,63.92
2022-10-15T05:42:13.445Z,63.96
2022-10-15T05:44:48.225Z,64.02
2022-10-15T05:47:16.269Z,63.85
2022-10-15T05:49:44.374Z,63.81
2022-10-15T05:52:17.595Z,63.79
2022-10-15T05:55:09.238Z,63.81
2022-10-15T05:57:37.217Z,63.80
2022-10-15T06:00:07.277Z,63.82
2022-10-15T06:02:41.203Z,63.74
2022-10-15T06:05:09.569Z,63.82
2022-10-15T06:07:38.187Z,63.79
2022-10-15T06:10:08.439Z,63.76
2022-10-15T06:12:36.537Z,63.83
2022-10-15T06:15:04.772Z,63.85
2022-10-15T06:17:32.838Z,63.82
2022-10-15T06:20:00.854Z,63.75
2022-10-15T06:22:31.895Z,63.68
2022-10-15T06:24:59.949Z,63.79
2022-10-15T06:27:30.834Z,64.01
2022-10-15T06:29:58.839Z,63.91
2022-10-15T06:32:26.812Z,63.84
2022-10-15T06:34:54.857Z,63.85
2022-10-15T06:37:23.306Z,63.86
2022-10-15T06:39:52.160Z,63.71
2022-10-15T06:42:20.162Z,63.73
2022-10-15T06:44:50.534Z,63.71
2022-10-15T06:47:18.563Z,63.69
2022-10-15T06:49:48.559Z,63.73
2022-10-15T06:52:16.947Z,63.63
2022-10-15T06:54:45.062Z,63.71
2022-10-15T06:57:15.066Z,63.62
2022-10-15T06:59:43.050Z,63.63
2022-10-15T07:02:14.118Z,63.58
2022-10-15T07:04:42.158Z,63.55
2022-10-15T07:07:10.126Z,63.56
2022-10-15T07:09:38.140Z,63.45
2022-10-15T07:12:06.966Z,63.40
2022-10-15T07:14:38.761Z,63.51
2022-10-15T07:17:09.670Z,63.52
2022-10-15T07:19:39.143Z,63.51
2022-10-15T07:22:07.170Z,63.45
2022-10-15T07:24:35.291Z,63.48
2022-10-15T07:27:08.335Z,63.66
2022-10-15T07:29:46.596Z,63.56
2022-10-15T07:32:14.822Z,63.35
2022-10-15T07:34:44.226Z,63.45
2022-10-15T07:37:12.246Z,63.37
2022-10-15T07:39:41.054Z,63.49
2022-10-15T07:42:09.862Z,63.34
2022-10-15T07:44:37.894Z,63.34
2022-10-15T07:47:11.246Z,63.23
2022-10-15T07:49:39.253Z,63.26
2022-10-15T07:52:09.487Z,63.26
2022-10-15T07:54:37.915Z,63.59
2022-10-15T07:57:07.140Z,63.55
2022-10-15T07:59:35.495Z,63.16
2022-10-15T08:02:03.492Z,63.15
2022-10-15T08:04:31.714Z,63.11
2022-10-15T08:06:59.695Z,63.15
2022-10-15T08:09:29.093Z,63.15
2022-10-15T08:11:57.142Z,63.63
2022-10-15T08:14:25.166Z,64.59
2022-10-15T08:16:53.185Z,61.75
2022-10-15T08:19:21.194Z,61.37
2022-10-15T08:21:50.214Z,61.97
2022-10-15T08:24:18.729Z,61.55
2022-10-15T08:26:48.104Z,61.25
2022-10-15T08:29:16.202Z,61.18
2022-10-15T08:31:44.305Z,61.45
2022-10-15T08:34:12.266Z,60.96
2022-10-15T08:36:40.266Z,60.06
2022-10-15T08:39:09.277Z,59.74
2022-10-15T08:41:41.634Z,59.99
2022-10-15T08:44:19.315Z,59.93
2022-10-15T08:46:51.124Z,59.64
2022-10-15T08:49:31.709Z,59.50
2022-10-15T08:52:08.416Z,60.75
2022-10-15T08:54:37.135Z,61.71
2022-10-15T08:57:17.969Z,60.35
2022-10-15T08:59:55.762Z,58.81
2022-10-15T09:02:27.845Z,57.87
2022-10-15T09:05:02.867Z,56.71
2022-10-15T09:07:42.780Z,54.93
2022-10-15T09:10:17.225Z,54.58
2022-10-15T09:12:52.993Z,54.23
2022-10-15T09:15:27.069Z,54.07
2022-10-15T09:17:56.527Z,52.43
2022-10-15T09:20:31.755Z,50.47
2022-10-15T09:22:59.913Z,50.53
2022-10-15T09:25:34.481Z,49.18
2022-10-15T09:28:11.430Z,50.16
2022-10-15T09:30:45.410Z,48.79
2022-10-15T09:33:19.363Z,48.94
2022-10-15T09:35:52.326Z,48.30
2022-10-15T09:38:30.109Z,47.06
2022-10-15T09:41:16.551Z,45.35
2022-10-15T09:43:47.837Z,45.71
2022-10-15T09:46:17.234Z,44.51
2022-10-15T09:48:50.165Z,44.96
2022-10-15T09:51:25.859Z,45.98
2022-10-15T09:54:02.643Z,45.69
2022-10-15T09:56:36.502Z,44.48
2022-10-15T09:59:07.355Z,42.97
2022-10-15T10:01:39.289Z,43.37
2022-10-15T10:04:18.145Z,44.15
2022-10-15T10:06:49.234Z,44.33
2022-10-15T10:09:20.670Z,45.12
2022-10-15T10:11:51.423Z,45.51
2022-10-15T10:14:27.593Z,46.67
2022-10-15T10:17:17.285Z,48.47
2022-10-15T10:19:47.065Z,49.83
2022-10-15T10:22:19.624Z,51.01
2022-10-15T10:24:48.713Z,52.06
2022-10-15T10:27:24.419Z,52.89
2022-10-15T10:29:59.893Z,53.55
2022-10-15T10:32:32.464Z,54.15
2022-10-15T10:35:02.028Z,54.72
2022-10-15T10:37:30.653Z,54.96
2022-10-15T10:40:01.693Z,55.13
2022-10-15T10:42:35.410Z,55.31
2022-10-15T10:45:18.975Z,55.46
2022-10-15T10:47:48.570Z,55.62
2022-10-15T10:50:29.205Z,55.34
2022-10-15T10:53:00.044Z,55.33
2022-10-15T10:55:38.518Z,55.07
2022-10-15T10:58:06.689Z,55.31
2022-10-15T11:00:40.031Z,55.23
2022-10-15T11:03:21.942Z,55.66
2022-10-15T11:06:07.686Z,56.31
2022-10-15T11:08:46.038Z,56.57
2022-10-15T11:11:20.810Z,56.30
2022-10-15T11:14:02.723Z,56.05
2022-10-15T11:16:37.249Z,56.23
2022-10-15T11:19:47.111Z,56.10
2022-10-15T11:22:48.801Z,56.11
2022-10-15T11:25:24.773Z,56.24
2022-10-15T11:28:02.419Z,56.02
2022-10-15T11:30:43.591Z,56.12
2022-10-15T11:33:29.273Z,56.24
2022-10-15T11:36:11.753Z,56.32
2022-10-15T11:38:46.761Z,56.19
2022-10-15T11:41:35.238Z,55.97
2022-10-15T11:44:16.850Z,56.52
2022-10-15T11:46:52.094Z,56.25
2022-10-15T11:49:29.560Z,56.09
2022-10-15T11:52:14.712Z,55.87
2022-10-15T11:54:46.907Z,55.47
2022-10-15T11:57:18.034Z,55.37
2022-10-15T11:59:53.321Z,55.62
2022-10-15T12:02:30.267Z,55.34
2022-10-15T12:05:01.637Z,54.64
2022-10-15T12:07:38.422Z,52.74
2022-10-15T12:10:22.569Z,52.73
2022-10-15T12:12:57.821Z,52.65
2022-10-15T12:15:32.170Z,52.49
2022-10-15T12:18:05.670Z,52.34
2022-10-15T12:20:34.171Z,52.59
2022-10-15T12:23:04.310Z,53.19
2022-10-15T12:25:46.603Z,52.49
2022-10-15T12:28:18.161Z,52.92
2022-10-15T12:30:56.709Z,53.21
2022-10-15T12:33:30.693Z,52.42
2022-10-15T12:36:00.894Z,52.28
2022-10-15T12:38:34.545Z,52.35
2022-10-15T12:41:06.270Z,52.73
2022-10-15T12:43:36.932Z,52.51
2022-10-15T12:46:07.203Z,52.40
2022-10-15T12:48:43.313Z,52.59
2022-10-15T12:51:35.341Z,52.94
2022-10-15T12:54:49.919Z,53.15
2022-10-15T12:58:01.475Z,52.63
2022-10-15T13:00:38.691Z,52.85
2022-10-15T13:03:33.714Z,52.57
2022-10-15T13:06:26.893Z,52.67
2022-10-15T13:09:06.835Z,52.71
2022-10-15T13:11:38.252Z,52.82
2022-10-15T13:14:26.199Z,52.80
2022-10-15T13:16:57.729Z,52.65
2022-10-15T13:19:29.282Z,52.71
2022-10-15T13:22:00.862Z,53.00
2022-10-15T13:24:41.805Z,52.82
2022-10-15T13:27:23.933Z,52.89
2022-10-15T13:29:58.697Z,53.07
2022-10-15T13:32:28.674Z,52.92
2022-10-15T13:34:57.612Z,53.07
2022-10-15T13:37:32.404Z,53.20
2022-10-15T13:40:04.653Z,54.17
2022-10-15T13:42:35.855Z,55.25
2022-10-15T13:45:16.560Z,56.00
2022-10-15T13:47:49.173Z,56.55
2022-10-15T13:50:23.877Z,56.95
2022-10-15T13:52:56.626Z,57.26
2022-10-15T13:55:28.440Z,57.55
2022-10-15T13:58:01.489Z,57.64
2022-10-15T14:00:34.454Z,57.78
2022-10-15T14:03:10.506Z,57.99
2022-10-15T14:05:38.517Z,58.41
2022-10-15T14:08:07.058Z,58.52
2022-10-15T14:10:35.069Z,58.61
2022-10-15T14:13:03.094Z,58.67
2022-10-15T14:15:47.966Z,58.67
2022-10-15T14:18:19.330Z,59.26
2022-10-15T14:20:48.924Z,59.61
2022-10-15T14:23:21.610Z,59.84
2022-10-15T14:25:55.449Z,59.82
2022-10-15T14:28:25.273Z,60.15
2022-10-15T14:30:55.557Z,60.25
2022-10-15T14:33:45.346Z,60.27
2022-10-15T14:36:23.019Z,60.92
2022-10-15T14:38:52.257Z,61.17
2022-10-15T14:41:27.241Z,61.18
2022-10-15T14:44:03.677Z,61.14
2022-10-15T14:46:39.304Z,61.38
2022-10-15T14:49:28.077Z,61.40
2022-10-15T14:51:58.921Z,62.02
2022-10-15T14:54:33.038Z,62.13
2022-10-15T14:57:01.941Z,62.31
2022-10-15T14:59:34.395Z,62.39
2022-10-15T15:02:06.190Z,62.43
2022-10-15T15:04:42.613Z,62.55
2022-10-15T15:07:16.704Z,62.44
2022-10-15T15:09:47.806Z,62.55
2022-10-15T15:12:21.755Z,62.56
2022-10-15T15:14:52.697Z,62.58
2022-10-15T15:17:24.101Z,62.63
2022-10-15T15:19:54.581Z,62.79
2022-10-15T15:22:29.106Z,62.71
2022-10-15T15:24:59.036Z,62.98
2022-10-15T15:27:28.745Z,63.05
2022-10-15T15:29:57.597Z,63.06
2022-10-15T15:32:27.435Z,62.99
2022-10-15T15:34:57.119Z,63.05
2022-10-15T15:37:26.145Z,63.13
2022-10-15T15:39:54.175Z,63.05
2022-10-15T15:42:24.432Z,63.15
2022-10-15T15:44:52.651Z,63.17
2022-10-15T15:47:20.765Z,63.21
2022-10-15T15:49:50.090Z,63.27
2022-10-15T15:52:19.028Z,63.33
2022-10-15T15:54:47.470Z,63.31
2022-10-15T15:57:15.606Z,63.35
2022-10-15T15:59:43.650Z,63.37
2022-10-15T16:02:13.075Z,63.34
2022-10-15T16:04:41.052Z,63.41
2022-10-15T16:07:13.297Z,63.44
2022-10-15T16:09:41.778Z,63.53
2022-10-15T16:12:09.837Z,63.54
2022-10-15T16:14:37.893Z,63.74
2022-10-15T16:17:06.680Z,63.76
2022-10-15T16:19:34.826Z,63.80
2022-10-15T16:22:02.893Z,63.76
2022-10-15T16:24:32.317Z,63.58
2022-10-15T16:27:01.306Z,63.49
2022-10-15T16:29:29.277Z,63.32
2022-10-15T16:31:57.470Z,63.31
2022-10-15T16:34:26.011Z,63.11
2022-10-15T16:36:54.065Z,63.21
2022-10-15T16:39:22.021Z,63.13
2022-10-15T16:41:51.413Z,63.11
2022-10-15T16:44:19.396Z,63.11
2022-10-15T16:47:31.832Z,62.98
2022-10-15T16:51:02.497Z,62.90
2022-10-15T16:54:15.539Z,63.03
2022-10-15T16:56:57.160Z,63.37
2022-10-15T16:59:33.230Z,63.24
2022-10-15T17:02:40.233Z,63.25
2022-10-15T17:13:36.595Z,63.65
2022-10-15T17:24:46.327Z,63.73
2022-10-15T17:28:34.099Z,63.57
2022-10-15T17:31:24.638Z,63.60
2022-10-15T17:37:26.196Z,63.56
2022-10-15T17:39:58.164Z,63.49
2022-10-15T17:42:27.015Z,63.44
2022-10-15T17:44:55.656Z,63.53
2022-10-15T17:47:24.345Z,63.52
2022-10-15T17:49:54.197Z,63.47
2022-10-15T17:52:22.722Z,63.42
2022-10-15T17:54:51.715Z,63.27
2022-10-15T17:57:20.066Z,63.35
2022-10-15T17:59:51.088Z,63.21
2022-10-15T18:02:19.756Z,63.36
2022-10-15T18:04:49.613Z,63.44
2022-10-15T18:07:19.969Z,63.35
2022-10-15T18:09:48.317Z,63.38
2022-10-15T18:12:16.602Z,63.27
2022-10-15T18:14:44.920Z,63.15
2022-10-15T18:17:15.296Z,63.01
2022-10-15T18:19:43.703Z,63.08
2022-10-15T18:22:12.686Z,63.08
2022-10-15T18:24:42.429Z,62.83
2022-10-15T18:27:10.722Z,63.00
2022-10-15T18:29:39.931Z,63.05
2022-10-15T18:32:08.840Z,62.97
2022-10-15T18:34:37.114Z,63.02
2022-10-15T18:37:05.435Z,63.20
2022-10-15T18:39:33.910Z,63.27
2022-10-15T18:42:04.343Z,63.24
2022-10-15T18:44:34.282Z,63.18
2022-10-15T18:47:02.585Z,63.14
2022-10-15T18:49:32.580Z,63.17
2022-10-15T18:52:06.526Z,63.22
2022-10-15T18:54:44.272Z,63.07
2022-10-15T18:57:13.926Z,62.86
2022-10-15T18:59:42.298Z,62.50
2022-10-15T19:02:10.680Z,62.68
2022-10-15T19:04:39.017Z,62.82
2022-10-15T19:07:07.374Z,62.73
2022-10-15T19:09:36.000Z,62.60
2022-10-15T19:12:04.661Z,62.48
2022-10-15T19:14:34.298Z,62.34
2022-10-15T19:17:03.384Z,62.30
2022-10-15T19:19:31.737Z,62.10
2022-10-15T19:22:00.631Z,62.12
2022-10-15T19:24:29.044Z,62.00
2022-10-15T19:26:57.595Z,61.92
2022-10-15T19:29:25.927Z,61.89
2022-10-15T19:31:56.952Z,61.94
2022-10-15T19:34:25.301Z,61.65
2022-10-15T19:36:53.664Z,61.47
2022-10-15T19:39:24.668Z,61.34
2022-10-15T19:41:53.708Z,61.50
2022-10-15T19:44:25.771Z,61.32
2022-10-15T19:46:56.665Z,61.07
2022-10-15T19:49:25.767Z,61.10
2022-10-15T19:51:54.848Z,61.09
2022-10-15T19:56:51.574Z,61.93
2022-10-15T19:59:21.907Z,62.13
2022-10-15T20:01:50.287Z,62.05
2022-10-15T20:04:22.296Z,61.42
2022-10-15T20:06:52.846Z,61.60
2022-10-15T20:09:21.257Z,61.43
2022-10-15T20:11:49.625Z,61.56
2022-10-15T20:14:17.940Z,61.81
2022-10-15T20:16:46.128Z,61.84
2022-10-15T20:19:14.882Z,61.96
2022-10-15T20:21:44.605Z,61.99
2022-10-15T20:24:13.039Z,61.92
2022-10-15T20:26:41.369Z,61.91
2022-10-15T20:29:09.704Z,61.89
2022-10-15T20:31:38.095Z,61.62
2022-10-15T20:34:06.278Z,61.76
2022-10-15T20:36:34.641Z,61.74
2022-10-15T20:39:04.368Z,61.51
2022-10-15T20:41:32.723Z,61.49
2022-10-15T20:44:00.946Z,61.28
2022-10-15T20:46:34.110Z,61.21
2022-10-15T20:49:08.806Z,60.90
2022-10-15T20:51:38.818Z,60.83
2022-10-15T20:54:08.896Z,60.54
2022-10-15T20:56:37.450Z,60.64
2022-10-15T20:59:06.381Z,60.90
2022-10-15T21:01:35.785Z,60.93
2022-10-15T21:04:04.789Z,60.89
2022-10-15T21:06:33.879Z,60.68
2022-10-15T21:09:02.693Z,60.65
2022-10-15T21:11:32.401Z,60.32
2022-10-15T21:14:01.551Z,59.92
2022-10-15T21:16:29.878Z,60.12
2022-10-15T21:18:58.177Z,60.18
2022-10-15T21:21:26.796Z,60.13
2022-10-15T21:23:55.405Z,60.09
2022-10-15T21:26:24.859Z,59.92
2022-10-15T21:28:56.976Z,59.81
2022-10-15T21:31:26.174Z,59.96
2022-10-15T21:33:55.905Z,59.90
2022-10-15T21:36:27.169Z,60.09
2022-10-15T21:38:57.159Z,59.94
2022-10-15T21:41:26.803Z,59.94
2022-10-15T21:43:56.530Z,59.77
2022-10-15T21:46:25.288Z,59.85
2022-10-15T21:48:54.650Z,59.77
2022-10-15T21:51:25.001Z,60.00
2022-10-15T21:53:53.859Z,60.30
2022-10-15T21:56:22.494Z,59.79
2022-10-15T21:58:52.123Z,59.66
2022-10-15T22:01:24.014Z,59.45
2022-10-15T22:03:53.871Z,59.52
2022-10-15T22:06:22.609Z,59.66
2022-10-15T22:08:51.513Z,59.21
2022-10-15T22:11:22.488Z,59.32
2022-10-15T22:13:52.803Z,59.25
2022-10-15T22:16:24.251Z,58.94
2022-10-15T22:18:53.136Z,58.90
2022-10-15T22:21:23.804Z,58.94
2022-10-15T22:23:53.724Z,58.88
2022-10-15T22:26:24.730Z,58.79
2022-10-15T22:28:54.238Z,58.77
2022-10-15T22:31:24.647Z,58.74
2022-10-15T22:33:53.765Z,58.60
2022-10-15T22:36:24.019Z,58.64
2022-10-15T22:41:23.593Z,58.52
2022-10-15T22:43:51.867Z,58.38
2022-10-15T22:46:19.967Z,58.35
2022-10-15T22:48:50.007Z,58.38
2022-10-15T22:51:18.239Z,58.44
2022-10-15T22:53:46.699Z,58.11
2022-10-15T22:56:17.126Z,57.85
2022-10-15T22:58:45.759Z,57.60
2022-10-15T23:01:16.700Z,57.56
2022-10-15T23:03:46.260Z,57.49
2022-10-15T23:06:16.549Z,57.44
2022-10-15T23:08:47.159Z,57.45
2022-10-15T23:11:17.694Z,57.25
2022-10-15T23:13:47.256Z,57.35
2022-10-15T23:16:16.923Z,57.38
2022-10-15T23:18:47.021Z,57.22
2022-10-15T23:21:17.921Z,57.22
2022-10-15T23:23:46.985Z,57.41
2022-10-15T23:26:16.734Z,57.29
2022-10-15T23:28:45.499Z,57.51
2022-10-15T23:31:16.996Z,57.38
2022-10-15T23:33:45.166Z,57.18
2022-10-15T23:36:13.360Z,57.26
2022-10-15T23:38:42.933Z,56.93
2022-10-15T23:41:11.518Z,57.01
2022-10-15T23:43:39.634Z,57.04
2022-10-15T23:46:07.676Z,56.92
2022-10-15T23:48:36.246Z,57.03
2022-10-15T23:51:04.502Z,57.03
2022-10-15T23:53:33.606Z,57.03
2022-10-15T23:56:03.950Z,57.26
2022-10-15T23:58:33.101Z,57.20
